createdAt,value
2023-01-13T00:01:11.924Z,13.90
2023-01-13T00:03:38.543Z,14.20
2023-01-13T00:06:05.608Z,12.80
2023-01-13T00:08:32.333Z,14.80
2023-01-13T00:10:59.162Z,14.80
2023-01-13T00:13:28.906Z,13.40
2023-01-13T00:16:00.310Z,14.90
2023-01-13T00:18:27.250Z,12.70
2023-01-13T00:21:08.143Z,14.00
2023-01-13T00:23:34.845Z,16.20
2023-01-13T00:26:04.539Z,11.40
2023-01-13T00:28:31.221Z,14.30
2023-01-13T00:31:10.269Z,15.60
2023-01-13T00:33:37.108Z,13.10
2023-01-13T00:36:05.536Z,13.80
2023-01-13T00:38:33.276Z,14.50
2023-01-13T00:41:07.993Z,13.10
2023-01-13T00:43:35.571Z,13.30
2023-01-13T00:46:03.462Z,15.80
2023-01-13T00:48:30.552Z,15.40
2023-01-13T00:51:05.242Z,12.10
2023-01-13T00:53:40.990Z,11.90
2023-01-13T00:56:13.839Z,10.40
2023-01-13T00:58:40.547Z,10.50
2023-01-13T01:01:13.559Z,9.60
2023-01-13T01:03:40.124Z,11.10
2023-01-13T01:06:14.489Z,8.00
2023-01-13T01:08:41.241Z,10.60
2023-01-13T01:11:16.632Z,10.60
2023-01-13T01:13:43.439Z,10.50
2023-01-13T01:16:13.260Z,8.60
2023-01-13T01:18:42.644Z,12.40
2023-01-13T01:21:09.570Z,8.10
2023-01-13T01:23:36.690Z,10.30
2023-01-13T01:26:06.084Z,11.20
2023-01-13T01:28:33.834Z,8.90
2023-01-13T01:31:01.385Z,9.60
2023-01-13T01:33:27.840Z,9.50
2023-01-13T01:35:54.446Z,10.90
2023-01-13T01:38:22.850Z,8.60
2023-01-13T01:40:49.454Z,8.80
2023-01-13T01:43:38.346Z,7.70
2023-01-13T01:46:05.088Z,9.60
2023-01-13T01:48:37.911Z,9.70
2023-01-13T01:51:04.438Z,7.90
2023-01-13T01:53:30.881Z,7.40
2023-01-13T01:55:57.676Z,10.00
2023-01-13T01:58:34.721Z,10.20
2023-01-13T02:01:01.521Z,8.80
2023-01-13T02:03:28.244Z,13.40
2023-01-13T02:05:54.722Z,13.70
2023-01-13T02:08:21.259Z,13.10
2023-01-13T02:10:52.638Z,10.10
2023-01-13T02:13:19.247Z,8.90
2023-01-13T02:16:08.175Z,9.20
2023-01-13T02:18:46.991Z,8.60
2023-01-13T02:21:38.587Z,10.50
2023-01-13T02:24:54.785Z,10.10
2023-01-13T02:27:49.574Z,8.00
2023-01-13T02:31:03.952Z,9.00
2023-01-13T02:33:37.710Z,9.30
2023-01-13T02:36:22.291Z,14.00
2023-01-13T02:39:11.462Z,8.60
2023-01-13T02:42:09.091Z,10.50
2023-01-13T02:44:43.943Z,10.40
2023-01-13T02:47:26.192Z,10.40
2023-01-13T02:49:56.843Z,8.10
2023-01-13T02:52:42.373Z,9.80
2023-01-13T02:55:15.471Z,8.90
2023-01-13T02:57:42.032Z,7.70
2023-01-13T03:00:09.485Z,10.20
2023-01-13T03:02:36.222Z,11.50
2023-01-13T03:05:02.854Z,10.60
2023-01-13T03:07:56.940Z,13.10
2023-01-13T03:10:30.713Z,10.70
2023-01-13T03:13:20.845Z,12.10
2023-01-13T03:15:53.791Z,9.70
2023-01-13T03:18:40.252Z,11.80
2023-01-13T03:21:29.177Z,9.50
2023-01-13T03:24:16.723Z,7.30
2023-01-13T03:27:05.010Z,9.30
2023-01-13T03:30:09.179Z,7.30
2023-01-13T03:32:42.173Z,10.10
2023-01-13T03:35:32.090Z,9.00
2023-01-13T03:38:11.247Z,10.90
2023-01-13T03:40:47.134Z,6.70
2023-01-13T03:43:36.535Z,10.70
2023-01-13T03:46:10.985Z,11.20
2023-01-13T03:48:38.003Z,8.30
2023-01-13T03:51:06.330Z,7.40
2023-01-13T03:53:57.555Z,8.40
2023-01-13T03:56:28.284Z,8.70
2023-01-13T03:58:54.620Z,7.70
2023-01-13T04:01:48.660Z,10.40
2023-01-13T04:04:20.344Z,6.30
2023-01-13T04:07:06.140Z,9.40
2023-01-13T04:09:56.337Z,9.50
2023-01-13T04:12:48.385Z,9.10
2023-01-13T04:15:22.815Z,9.10
2023-01-13T04:17:50.691Z,10.90
2023-01-13T04:20:17.396Z,12.10
2023-01-13T04:22:43.836Z,9.90
2023-01-13T04:25:10.738Z,9.40
2023-01-13T04:27:37.247Z,8.20
2023-01-13T04:30:04.991Z,6.20
2023-01-13T04:32:31.692Z,7.80
2023-01-13T04:34:58.225Z,6.60
2023-01-13T04:37:24.700Z,7.90
2023-01-13T04:39:51.078Z,6.40
2023-01-13T04:42:17.425Z,7.40
2023-01-13T04:44:43.862Z,9.10
2023-01-13T04:47:10.346Z,5.80
2023-01-13T04:49:36.780Z,4.10
2023-01-13T04:52:03.338Z,6.40
2023-01-13T04:54:29.700Z,8.50
2023-01-13T04:56:56.159Z,6.50
2023-01-13T04:59:22.718Z,7.10
2023-01-13T05:01:49.178Z,8.50
2023-01-13T05:04:16.443Z,8.50
2023-01-13T05:06:42.898Z,6.10
2023-01-13T05:09:11.804Z,6.20
2023-01-13T05:11:57.491Z,8.00
2023-01-13T05:14:42.759Z,7.30
2023-01-13T05:17:09.417Z,9.40
2023-01-13T05:19:38.515Z,8.80
2023-01-13T05:22:23.741Z,6.40
2023-01-13T05:25:08.947Z,5.60
2023-01-13T05:27:35.485Z,5.90
2023-01-13T05:30:02.097Z,7.30
2023-01-13T05:32:28.625Z,5.20
2023-01-13T05:34:55.288Z,7.60
2023-01-13T05:37:23.108Z,6.80
2023-01-13T05:40:08.379Z,6.70
2023-01-13T05:42:53.612Z,8.70
2023-01-13T05:45:20.135Z,8.00
2023-01-13T05:47:46.495Z,5.80
2023-01-13T05:50:12.912Z,8.40
2023-01-13T05:52:39.275Z,10.30
2023-01-13T05:55:06.033Z,6.10
2023-01-13T05:57:32.595Z,5.40
2023-01-13T05:59:59.079Z,7.10
2023-01-13T06:02:26.083Z,6.80
2023-01-13T06:04:52.478Z,8.50
2023-01-13T06:07:18.990Z,6.70
2023-01-13T06:09:45.500Z,7.10
2023-01-13T06:12:12.231Z,6.50
2023-01-13T06:14:41.547Z,6.00
2023-01-13T06:17:12.848Z,8.70
2023-01-13T06:19:39.872Z,6.50
2023-01-13T06:22:19.911Z,5.50
2023-01-13T06:24:47.185Z,4.00
2023-01-13T06:27:13.902Z,8.10
2023-01-13T06:29:40.852Z,6.50
2023-01-13T06:32:15.395Z,9.20
2023-01-13T06:34:44.092Z,6.90
2023-01-13T06:37:12.098Z,6.30
2023-01-13T06:39:38.517Z,6.80
2023-01-13T06:42:23.792Z,8.60
2023-01-13T06:44:50.183Z,6.30
2023-01-13T06:47:17.478Z,8.40
2023-01-13T06:49:43.882Z,8.10
2023-01-13T06:52:10.438Z,10.90
2023-01-13T06:54:36.958Z,7.60
2023-01-13T06:57:03.650Z,8.10
2023-01-13T06:59:30.091Z,8.50
2023-01-13T07:01:56.725Z,9.50
2023-01-13T07:04:23.467Z,7.80
2023-01-13T07:06:49.894Z,8.00
2023-01-13T07:09:16.351Z,8.60
2023-01-13T07:11:42.942Z,7.40
2023-01-13T07:14:28.008Z,6.90
2023-01-13T07:16:54.468Z,10.20
2023-01-13T07:19:23.229Z,7.90
2023-01-13T07:21:52.609Z,8.90
2023-01-13T07:24:19.452Z,6.80
2023-01-13T07:26:45.844Z,8.60
2023-01-13T07:29:12.335Z,7.40
2023-01-13T07:31:39.373Z,7.80
2023-01-13T07:34:06.331Z,7.90
2023-01-13T07:36:32.842Z,8.20
2023-01-13T07:38:59.743Z,7.50
2023-01-13T07:41:45.009Z,7.40
2023-01-13T07:44:11.490Z,8.50
2023-01-13T07:46:38.408Z,9.00
2023-01-13T07:49:05.076Z,9.40
2023-01-13T07:51:34.453Z,10.30
2023-01-13T07:54:00.981Z,12.00
2023-01-13T07:56:27.429Z,14.50
2023-01-13T07:58:53.905Z,10.00
2023-01-13T08:01:20.467Z,8.50
2023-01-13T08:03:47.003Z,11.10
2023-01-13T08:06:14.200Z,10.80
2023-01-13T08:08:40.672Z,9.30
2023-01-13T08:11:07.494Z,8.60
2023-01-13T08:13:33.892Z,9.70
2023-01-13T08:16:02.144Z,10.50
2023-01-13T08:18:28.731Z,10.70
2023-01-13T08:20:55.282Z,10.20
2023-01-13T08:23:22.115Z,9.60
2023-01-13T08:25:49.092Z,10.70
2023-01-13T08:28:15.841Z,9.20
2023-01-13T08:30:42.474Z,9.30
2023-01-13T08:33:10.497Z,13.10
2023-01-13T08:35:38.414Z,8.40
2023-01-13T08:38:05.255Z,9.70
2023-01-13T08:40:32.118Z,9.70
2023-01-13T08:42:58.852Z,11.20
2023-01-13T08:45:25.424Z,10.70
2023-01-13T08:47:51.969Z,11.50
2023-01-13T08:50:18.679Z,9.10
2023-01-13T08:52:45.129Z,9.50
2023-01-13T08:55:11.654Z,9.80
2023-01-13T08:57:38.066Z,9.60
2023-01-13T09:00:06.500Z,10.20
2023-01-13T09:02:33.105Z,10.80
2023-01-13T09:05:03.954Z,8.80
2023-01-13T09:07:30.564Z,10.00
2023-01-13T09:09:57.004Z,11.20
2023-01-13T09:12:42.205Z,12.00
2023-01-13T09:15:09.269Z,11.00
2023-01-13T09:17:35.638Z,10.90
2023-01-13T09:20:02.170Z,9.50
2023-01-13T09:22:28.724Z,8.00
2023-01-13T09:24:55.400Z,9.60
2023-01-13T09:27:22.368Z,7.80
2023-01-13T09:29:49.038Z,8.90
2023-01-13T09:32:15.560Z,7.20
2023-01-13T09:35:00.300Z,8.30
2023-01-13T09:37:41.202Z,9.40
2023-01-13T09:40:25.959Z,9.20
2023-01-13T09:43:15.752Z,7.20
2023-01-13T09:45:59.261Z,6.00
2023-01-13T09:48:51.103Z,10.00
2023-01-13T09:51:41.002Z,8.40
2023-01-13T09:54:25.311Z,9.90
2023-01-13T09:56:52.489Z,7.90
2023-01-13T09:59:19.079Z,10.20
2023-01-13T10:01:56.818Z,8.40
2023-01-13T10:04:23.380Z,9.60
2023-01-13T10:06:52.804Z,8.50
2023-01-13T10:09:26.708Z,8.50
2023-01-13T10:12:12.982Z,9.00
2023-01-13T10:14:42.393Z,11.30
2023-01-13T10:17:44.624Z,10.50
2023-01-13T10:20:32.180Z,8.10
2023-01-13T10:23:38.203Z,7.90
2023-01-13T10:26:39.660Z,7.30
2023-01-13T10:29:20.039Z,7.50
2023-01-13T10:31:46.786Z,6.60
2023-01-13T10:34:19.179Z,7.80
2023-01-13T10:37:08.018Z,8.20
2023-01-13T10:39:43.599Z,6.70
2023-01-13T10:42:16.411Z,5.90
2023-01-13T10:45:03.060Z,6.80
2023-01-13T10:47:34.857Z,6.40
2023-01-13T10:50:23.940Z,8.10
2023-01-13T10:53:22.309Z,8.00
2023-01-13T10:56:01.402Z,6.70
2023-01-13T10:58:28.296Z,7.50
2023-01-13T11:01:00.814Z,5.60
2023-01-13T11:03:40.022Z,7.40
2023-01-13T11:06:06.909Z,7.30
2023-01-13T11:08:44.843Z,7.50
2023-01-13T11:11:41.173Z,7.60
2023-01-13T11:14:39.143Z,7.20
2023-01-13T11:17:33.191Z,8.00
2023-01-13T11:20:30.832Z,6.70
2023-01-13T11:23:02.279Z,6.40
2023-01-13T11:25:51.345Z,7.10
2023-01-13T11:28:34.956Z,5.80
2023-01-13T11:31:12.960Z,5.10
2023-01-13T11:33:58.579Z,5.80
2023-01-13T11:36:32.545Z,4.40
2023-01-13T11:39:53.716Z,6.60
2023-01-13T11:42:26.270Z,6.90
2023-01-13T11:45:18.285Z,6.30
2023-01-13T11:47:50.401Z,6.50
2023-01-13T11:50:34.465Z,5.80
2023-01-13T11:53:30.195Z,7.10
2023-01-13T11:56:19.365Z,7.10
2023-01-13T11:59:05.242Z,6.90
2023-01-13T12:02:13.526Z,6.70
2023-01-13T12:05:28.169Z,5.80
2023-01-13T12:08:25.469Z,10.70
2023-01-13T12:11:05.275Z,6.50
2023-01-13T12:14:52.645Z,7.10
2023-01-13T12:17:48.523Z,8.30
2023-01-13T12:20:29.890Z,6.20
2023-01-13T12:22:56.500Z,7.70
2023-01-13T12:25:30.485Z,6.90
2023-01-13T12:28:18.935Z,7.20
2023-01-13T12:30:50.175Z,6.90
2023-01-13T12:33:56.390Z,7.90
2023-01-13T12:36:44.054Z,7.40
2023-01-13T12:39:28.457Z,6.40
2023-01-13T12:42:40.317Z,5.80
2023-01-13T12:45:09.617Z,6.00
2023-01-13T12:47:37.618Z,7.10
2023-01-13T12:50:36.171Z,6.30
2023-01-13T12:53:35.636Z,6.80
2023-01-13T12:56:41.701Z,6.30
2023-01-13T12:59:18.443Z,8.00
2023-01-13T13:01:47.179Z,5.90
2023-01-13T13:04:17.876Z,6.40
2023-01-13T13:06:51.062Z,6.40
2023-01-13T13:09:27.955Z,8.60
2023-01-13T13:11:57.281Z,8.70
2023-01-13T13:14:38.791Z,7.50
2023-01-13T13:17:31.208Z,7.80
2023-01-13T13:19:58.995Z,7.10
2023-01-13T13:22:27.242Z,6.50
2023-01-13T13:24:53.750Z,8.50
2023-01-13T13:27:48.311Z,7.40
2023-01-13T13:30:25.099Z,8.10
2023-01-13T13:33:19.525Z,6.90
2023-01-13T13:36:06.881Z,8.00
2023-01-13T13:39:23.618Z,7.60
2023-01-13T13:42:09.917Z,7.20
2023-01-13T13:44:58.518Z,6.80
2023-01-13T13:47:24.897Z,7.50
2023-01-13T13:49:53.747Z,6.00
2023-01-13T13:52:32.688Z,9.30
2023-01-13T13:55:07.745Z,7.20
2023-01-13T13:57:39.836Z,5.90
2023-01-13T14:00:29.731Z,6.50
2023-01-13T14:03:05.378Z,7.60
2023-01-13T14:05:35.842Z,8.00
2023-01-13T14:08:08.424Z,6.00
2023-01-13T14:10:37.729Z,7.80
2023-01-13T14:13:14.241Z,7.90
2023-01-13T14:15:40.731Z,7.50
2023-01-13T14:18:18.669Z,7.90
2023-01-13T14:21:25.095Z,8.40
2023-01-13T14:23:57.051Z,7.60
2023-01-13T14:26:29.049Z,7.10
2023-01-13T14:28:56.567Z,5.90
2023-01-13T14:31:23.186Z,8.40
2023-01-13T14:34:01.517Z,7.90
2023-01-13T14:36:31.081Z,8.90
2023-01-13T14:39:03.756Z,10.60
2023-01-13T14:41:42.156Z,13.70
2023-01-13T14:44:34.272Z,7.60
2023-01-13T14:47:04.538Z,6.70
2023-01-13T14:49:38.893Z,10.00
2023-01-13T14:52:23.124Z,9.50
2023-01-13T14:55:09.613Z,8.90
2023-01-13T14:57:40.974Z,8.70
2023-01-13T15:00:13.296Z,9.00
2023-01-13T15:02:44.002Z,8.40
2023-01-13T15:05:16.489Z,9.80
2023-01-13T15:08:09.793Z,9.30
2023-01-13T15:10:47.698Z,9.80
2023-01-13T15:13:47.188Z,8.70
2023-01-13T15:16:32.250Z,9.10
2023-01-13T15:18:59.855Z,13.20
2023-01-13T15:21:26.359Z,14.70
2023-01-13T15:23:52.845Z,11.90
2023-01-13T15:26:25.859Z,10.60
2023-01-13T15:28:54.940Z,10.70
2023-01-13T15:31:21.591Z,10.50
2023-01-13T15:33:48.478Z,9.20
2023-01-13T15:39:45.379Z,13.80
2023-01-13T15:42:31.913Z,11.00
2023-01-13T15:45:18.775Z,11.40
2023-01-13T15:47:46.604Z,13.30
2023-01-13T15:50:16.426Z,10.30
2023-01-13T15:52:44.364Z,11.80
2023-01-13T15:55:12.303Z,13.00
2023-01-13T15:57:42.496Z,13.00
2023-01-13T16:00:16.794Z,14.60
2023-01-13T16:02:44.740Z,12.40
2023-01-13T16:05:12.962Z,10.40
2023-01-13T16:07:40.901Z,11.20
2023-01-13T16:10:21.481Z,9.00
2023-01-13T16:12:49.402Z,8.70
2023-01-13T16:15:18.169Z,10.10
2023-01-13T16:17:46.138Z,10.10
2023-01-13T16:20:16.519Z,7.90
2023-01-13T16:22:45.538Z,10.80
2023-01-13T16:25:24.858Z,9.50
2023-01-13T16:27:52.870Z,9.30
2023-01-13T16:30:26.276Z,9.50
2023-01-13T16:32:55.228Z,12.90
2023-01-13T16:35:23.333Z,9.00
2023-01-13T16:37:52.263Z,10.20
2023-01-13T16:40:33.479Z,9.20
2023-01-13T16:43:03.292Z,10.30
2023-01-13T16:45:31.430Z,9.60
2023-01-13T16:47:59.461Z,11.00
2023-01-13T16:50:42.540Z,9.90
2023-01-13T16:53:11.274Z,11.70
2023-01-13T16:55:39.982Z,9.80
2023-01-13T16:58:16.567Z,11.00
2023-01-13T17:00:47.091Z,9.60
2023-01-13T17:03:16.072Z,8.40
2023-01-13T17:05:46.938Z,12.40
2023-01-13T17:08:18.064Z,8.90
2023-01-13T17:10:46.314Z,8.50
2023-01-13T17:13:16.732Z,9.50
2023-01-13T17:15:45.731Z,9.10
2023-01-13T17:18:13.959Z,9.70
2023-01-13T17:20:41.788Z,11.10
2023-01-13T17:23:09.989Z,8.00
2023-01-13T17:25:37.913Z,11.10
2023-01-13T17:28:06.270Z,9.10
2023-01-13T17:30:34.467Z,9.70
2023-01-13T17:33:02.335Z,9.50
2023-01-13T17:35:30.213Z,11.80
2023-01-13T17:37:58.140Z,12.10
2023-01-13T17:40:25.973Z,9.60
2023-01-13T17:42:53.897Z,13.00
2023-01-13T17:45:21.937Z,9.30
2023-01-13T17:47:49.817Z,12.80
2023-01-13T17:50:17.872Z,17.10
2023-01-13T17:52:46.732Z,13.20
2023-01-13T17:55:14.664Z,16.80
2023-01-13T17:57:42.578Z,15.40
2023-01-13T18:00:12.544Z,14.90
2023-01-13T18:02:40.393Z,16.80
2023-01-13T18:05:09.009Z,12.30
2023-01-13T18:07:36.913Z,11.80
2023-01-13T18:10:05.279Z,13.80
2023-01-13T18:12:34.946Z,11.70
2023-01-13T18:15:02.687Z,10.90
2023-01-13T18:17:30.580Z,16.60
2023-01-13T18:20:19.166Z,11.20
2023-01-13T18:23:05.757Z,12.30
2023-01-13T18:25:52.364Z,13.20
2023-01-13T18:28:20.173Z,16.10
2023-01-13T18:30:48.050Z,13.20
2023-01-13T18:33:15.885Z,12.20
2023-01-13T18:35:43.832Z,17.30
2023-01-13T18:38:14.885Z,13.50
2023-01-13T18:40:44.614Z,16.60
2023-01-13T18:43:12.434Z,14.50
2023-01-13T18:45:40.215Z,13.60
2023-01-13T18:48:08.012Z,12.70
2023-01-13T18:50:35.962Z,13.30
2023-01-13T18:53:03.903Z,13.90
2023-01-13T18:55:31.700Z,16.30
2023-01-13T18:57:59.585Z,12.10
2023-01-13T19:00:27.524Z,16.50
2023-01-13T19:05:34.995Z,14.40
2023-01-13T19:08:04.053Z,16.50
2023-01-13T19:10:32.802Z,16.50
2023-01-13T19:13:01.570Z,13.50
2023-01-13T19:15:29.884Z,14.80
2023-01-13T19:17:57.919Z,15.10
2023-01-13T19:20:25.829Z,14.40
2023-01-13T19:22:54.584Z,15.30
2023-01-13T19:25:22.914Z,14.80
2023-01-13T19:27:50.792Z,13.90
2023-01-13T19:30:18.961Z,12.40
2023-01-13T19:32:46.916Z,12.50
2023-01-13T19:35:17.745Z,14.10
2023-01-13T19:37:45.795Z,12.40
2023-01-13T19:40:13.921Z,12.30
2023-01-13T19:43:03.417Z,15.90
2023-01-13T19:45:33.810Z,14.70
2023-01-13T19:48:02.508Z,15.70
2023-01-13T19:50:30.483Z,16.60
2023-01-13T19:52:58.324Z,15.60
2023-01-13T19:55:26.322Z,15.90
2023-01-13T19:57:54.209Z,17.60
2023-01-13T20:00:22.220Z,15.30
2023-01-13T20:02:52.414Z,14.30
2023-01-13T20:05:22.624Z,17.50
2023-01-13T20:07:51.073Z,18.00
2023-01-13T20:10:20.309Z,17.60
2023-01-13T20:12:48.364Z,13.80
2023-01-13T20:15:16.249Z,17.30
2023-01-13T20:17:44.259Z,16.20
2023-01-13T20:20:12.219Z,18.60
2023-01-13T20:22:40.103Z,16.30
2023-01-13T20:25:09.188Z,14.60
2023-01-13T20:27:37.262Z,17.30
2023-01-13T20:30:09.609Z,17.20
2023-01-13T20:32:37.624Z,18.00
2023-01-13T20:35:07.439Z,18.30
2023-01-13T20:37:37.250Z,20.10
2023-01-13T20:40:06.812Z,20.20
2023-01-13T20:42:46.851Z,22.10
2023-01-13T20:45:21.649Z,20.00
2023-01-13T20:47:49.410Z,16.50
2023-01-13T20:50:17.376Z,19.30
2023-01-13T20:52:45.387Z,17.60
2023-01-13T20:55:13.716Z,20.40
2023-01-13T20:57:41.947Z,20.10
2023-01-13T21:00:10.925Z,16.00
2023-01-13T21:02:40.919Z,19.60
2023-01-13T21:05:09.719Z,18.10
2023-01-13T21:07:37.615Z,16.60
2023-01-13T21:10:05.976Z,18.00
2023-01-13T21:12:52.682Z,19.10
2023-01-13T21:15:22.026Z,21.30
2023-01-13T21:18:09.955Z,19.10
2023-01-13T21:20:38.838Z,16.60
2023-01-13T21:23:06.870Z,18.30
2023-01-13T21:25:36.460Z,19.30
2023-01-13T21:28:08.324Z,19.50
2023-01-13T21:30:38.285Z,16.80
2023-01-13T21:33:06.331Z,19.00
2023-01-13T21:35:38.182Z,17.20
2023-01-13T21:38:05.958Z,15.90
2023-01-13T21:40:33.789Z,16.30
2023-01-13T21:43:20.462Z,16.30
2023-01-13T21:46:07.015Z,15.70
2023-01-13T21:48:34.987Z,16.30
2023-01-13T21:51:02.732Z,18.00
2023-01-13T21:53:30.597Z,19.00
2023-01-13T21:55:58.361Z,16.50
2023-01-13T21:58:26.118Z,17.30
2023-01-13T22:00:54.223Z,17.40
2023-01-13T22:03:22.264Z,17.00
2023-01-13T22:05:55.669Z,18.20
2023-01-13T22:08:23.588Z,17.90
2023-01-13T22:10:57.259Z,15.80
2023-01-13T22:13:47.519Z,17.90
2023-01-13T22:16:15.899Z,15.30
2023-01-13T22:18:43.694Z,14.70
2023-01-13T22:21:11.564Z,15.70
2023-01-13T22:23:39.321Z,18.70
2023-01-13T22:26:07.841Z,16.60
2023-01-13T22:28:40.549Z,17.30
2023-01-13T22:31:15.180Z,14.70
2023-01-13T22:33:43.157Z,18.10
2023-01-13T22:36:11.070Z,19.60
2023-01-13T22:38:39.108Z,16.60
2023-01-13T22:41:08.491Z,16.70
2023-01-13T22:43:37.084Z,18.60
2023-01-13T22:46:08.790Z,19.90
2023-01-13T22:48:37.618Z,19.40
2023-01-13T22:51:10.716Z,19.10
2023-01-13T22:53:38.845Z,18.00
2023-01-13T22:56:07.327Z,21.20
2023-01-13T22:58:35.257Z,20.40
2023-01-13T23:01:15.434Z,16.00
2023-01-13T23:03:46.384Z,19.30
2023-01-13T23:06:14.484Z,16.20
2023-01-13T23:08:42.338Z,17.20
2023-01-13T23:11:13.398Z,17.30
2023-01-13T23:13:43.206Z,16.80
2023-01-13T23:16:21.206Z,15.50
2023-01-13T23:18:49.474Z,16.90
2023-01-13T23:21:27.095Z,18.90
2023-01-13T23:23:55.803Z,15.10
2023-01-13T23:26:24.356Z,16.10
2023-01-13T23:28:52.219Z,16.50
2023-01-13T23:31:22.014Z,18.50
2023-01-13T23:33:49.834Z,15.60
2023-01-13T23:36:20.801Z,16.80
2023-01-13T23:39:41.919Z,16.00
2023-01-13T23:42:09.731Z,16.80
2023-01-13T23:44:37.597Z,16.50
2023-01-13T23:47:05.526Z,15.30
2023-01-13T23:49:33.432Z,16.40
2023-01-13T23:52:01.226Z,16.70
2023-01-13T23:54:29.099Z,15.30
2023-01-13T23:56:57.434Z,17.70
2023-01-13T23:59:25.385Z,12.10
